createdAt,value
2023-05-23T05:07:20.047Z,8.90
2023-05-23T05:12:13.535Z,9.07
2023-05-23T05:17:07.590Z,9.03
2023-05-23T05:22:13.589Z,9.27
2023-05-23T05:27:09.574Z,8.47
2023-05-23T05:32:03.470Z,8.25
2023-05-23T05:36:57.319Z,7.80
2023-05-23T05:41:52.124Z,8.18
2023-05-23T05:46:48.581Z,8.07
2023-05-23T05:51:42.085Z,7.95
2023-05-23T05:56:35.651Z,8.07
2023-05-23T06:01:29.354Z,8.23
2023-05-23T06:06:24.123Z,8.55
2023-05-23T06:11:17.628Z,7.47
2023-05-23T06:16:12.054Z,8.30
2023-05-23T06:21:06.236Z,8.05
2023-05-23T06:26:02.801Z,6.90
2023-05-23T06:30:56.201Z,7.38
2023-05-23T06:35:49.674Z,6.40
2023-05-23T06:40:43.244Z,6.63
2023-05-23T06:45:38.428Z,6.40
2023-05-23T06:50:31.941Z,6.47
2023-05-23T06:55:25.883Z,6.97
2023-05-23T07:00:20.179Z,6.30
2023-05-23T07:05:28.757Z,7.93
2023-05-23T07:10:25.737Z,6.47
2023-05-23T07:15:21.839Z,6.90
2023-05-23T07:20:24.253Z,6.82
2023-05-23T07:25:25.752Z,6.43
2023-05-23T07:30:20.440Z,6.75
2023-05-23T07:35:14.274Z,6.38
2023-05-23T07:40:10.572Z,6.70
2023-05-23T07:45:06.060Z,6.05
2023-05-23T07:50:02.275Z,6.70
2023-05-23T07:54:56.330Z,6.72
2023-05-23T07:59:49.800Z,6.45
2023-05-23T08:04:45.377Z,6.15
2023-05-23T08:09:39.343Z,6.75
2023-05-23T08:14:46.355Z,6.40
2023-05-23T08:20:00.660Z,6.03
2023-05-23T08:24:54.940Z,6.28
2023-05-23T08:29:49.707Z,6.07
2023-05-23T08:34:43.113Z,6.07
2023-05-23T08:39:37.864Z,6.88
2023-05-23T08:45:04.530Z,6.13
2023-05-23T08:49:59.296Z,5.50
2023-05-23T08:54:55.415Z,6.38
2023-05-23T08:59:50.414Z,5.80
2023-05-23T09:04:43.979Z,5.97
2023-05-23T09:09:44.510Z,6.03
2023-05-23T09:14:41.991Z,5.70
2023-05-23T09:19:41.892Z,6.03
2023-05-23T09:24:52.222Z,5.82
2023-05-23T09:29:47.866Z,6.40
2023-05-23T09:34:56.323Z,6.50
2023-05-23T09:39:50.415Z,6.40
2023-05-23T09:44:44.002Z,6.25
2023-05-23T09:49:40.481Z,6.32
2023-05-23T09:54:33.986Z,6.40
2023-05-23T09:59:29.628Z,5.78
2023-05-23T10:04:24.137Z,6.40
2023-05-23T10:09:20.327Z,6.68
2023-05-23T10:14:14.560Z,6.38
2023-05-23T10:19:14.479Z,7.20
2023-05-23T10:24:09.565Z,7.95
2023-05-23T10:29:05.349Z,8.45
2023-05-23T10:34:09.471Z,8.43
2023-05-23T10:39:09.525Z,8.75
2023-05-23T10:44:11.127Z,7.60
2023-05-23T10:49:11.454Z,7.75
2023-05-23T10:54:12.822Z,7.93
2023-05-23T10:59:07.644Z,7.80
2023-05-23T11:04:07.371Z,7.38
2023-05-23T11:09:07.623Z,6.30
2023-05-23T11:14:02.651Z,5.68
2023-05-23T11:19:28.090Z,5.65
2023-05-23T11:24:22.007Z,4.78
2023-05-23T11:29:18.116Z,4.78
2023-05-23T11:34:13.974Z,4.60
2023-05-23T11:39:08.818Z,4.53
2023-05-23T11:44:02.683Z,4.35
2023-05-23T11:48:55.952Z,5.05
2023-05-23T11:53:49.346Z,6.43
2023-05-23T11:58:45.365Z,6.85
2023-05-23T12:03:47.663Z,5.68
2023-05-23T12:08:41.162Z,5.97
2023-05-23T12:13:34.725Z,5.88
2023-05-23T12:18:32.070Z,6.00
2023-05-23T12:23:29.699Z,7.35
2023-05-23T12:28:36.776Z,7.10
2023-05-23T12:33:31.506Z,9.30
2023-05-23T12:38:29.463Z,8.02
2023-05-23T12:43:22.877Z,7.30
2023-05-23T12:48:16.837Z,7.22
2023-05-23T12:53:11.651Z,7.25
2023-05-23T12:58:04.999Z,7.72
2023-05-23T13:02:58.362Z,7.68
2023-05-23T13:07:51.756Z,7.93
2023-05-23T13:12:46.513Z,8.30
2023-05-23T13:17:39.884Z,8.55
2023-05-23T13:22:33.463Z,7.72
2023-05-23T13:27:26.870Z,7.50
2023-05-23T13:32:21.686Z,8.15
2023-05-23T13:37:15.758Z,8.93
2023-05-23T13:42:09.608Z,7.97
2023-05-23T13:47:13.289Z,8.43
2023-05-23T13:52:08.738Z,9.25
2023-05-23T13:57:02.561Z,8.93
2023-05-23T14:01:56.130Z,8.75
2023-05-23T14:06:49.829Z,8.82
2023-05-23T14:11:44.635Z,7.70
2023-05-23T14:16:38.404Z,7.18
2023-05-23T14:21:32.494Z,7.63
2023-05-23T14:26:26.518Z,7.70
2023-05-23T14:31:21.886Z,7.53
2023-05-23T14:36:15.332Z,7.85
2023-05-23T14:41:08.752Z,8.57
2023-05-23T14:46:02.205Z,8.55
2023-05-23T14:50:57.029Z,8.38
2023-05-23T14:55:50.530Z,8.70
2023-05-23T15:00:47.020Z,8.48
2023-05-23T15:05:40.967Z,8.35
2023-05-23T15:10:36.157Z,8.93
2023-05-23T15:15:37.196Z,7.95
2023-05-23T15:20:30.556Z,8.32
2023-05-23T15:25:38.410Z,9.25
2023-05-23T15:30:41.274Z,7.22
2023-05-23T15:35:35.523Z,6.85
2023-05-23T15:40:28.956Z,6.35
2023-05-23T15:45:22.463Z,6.30
2023-05-23T15:50:18.952Z,7.07
2023-05-23T15:55:12.366Z,7.35
2023-05-23T16:00:06.941Z,7.65
2023-05-23T16:05:05.635Z,7.57
2023-05-23T16:10:00.599Z,7.38
2023-05-23T16:14:54.109Z,7.95
2023-05-23T16:19:47.496Z,7.32
2023-05-23T16:24:41.920Z,7.78
2023-05-23T16:29:37.343Z,9.07
2023-05-23T16:34:31.668Z,7.00
2023-05-23T16:39:25.104Z,7.97
2023-05-23T16:44:18.625Z,6.88
2023-05-23T16:49:13.475Z,6.97
2023-05-23T16:54:07.110Z,7.32
2023-05-23T16:59:00.921Z,5.90
2023-05-23T17:03:54.683Z,6.38
2023-05-23T17:08:49.591Z,6.22
2023-05-23T17:13:43.396Z,7.10
2023-05-23T17:18:37.362Z,7.50
2023-05-23T17:23:30.776Z,8.02
2023-05-23T17:28:25.745Z,8.38
2023-05-23T17:33:19.220Z,8.40
2023-05-23T17:38:12.644Z,9.07
2023-05-23T17:43:07.409Z,8.93
2023-05-23T17:48:03.685Z,8.35
2023-05-23T17:52:57.775Z,7.43
2023-05-23T17:57:51.306Z,10.60
2023-05-23T18:02:44.870Z,7.90
2023-05-23T18:07:39.759Z,7.13
2023-05-23T18:12:33.276Z,7.25
2023-05-23T18:17:27.006Z,7.50
2023-05-23T18:22:21.448Z,7.47
2023-05-23T18:27:16.475Z,7.80
2023-05-23T18:32:10.007Z,8.05
